This is the latest recevied weather packets stored in our database for station/object OM3WYM-13. If no packets are shown the sender has not sent any weather packets the latest 10 day(s).
| Time | Temp. | Humidity | Pressure | Rain* | Wind** | Luminosity | Snow |
|---|---|---|---|---|---|---|---|
| 1778019008 | 10.56° C | 57% | 1010.9 hPa | - | - | - | - |
| 1778018408 | 10.56° C | 57% | 1010.9 hPa | - | - | - | - |
| 1778017808 | 10.56° C | 57% | 1010.9 hPa | - | - | - | - |
| 1778017208 | 10.56° C | 58% | 1010.9 hPa | - | - | - | - |
| 1778016608 | 10.56° C | 58% | 1011 hPa | - | - | - | - |
| 1778016008 | 10.56° C | 58% | 1011 hPa | - | - | - | - |
| 1778015408 | 10.56° C | 58% | 1011 hPa | - | - | - | - |
| 1778014808 | 11.11° C | 56% | 1010.8 hPa | - | - | - | - |
| 1778014208 | 11.67° C | 56% | 1010.8 hPa | - | - | - | - |
| 1778013608 | 12.22° C | 54% | 1010.8 hPa | - | - | - | - |
| 1778013008 | 12.22° C | 53% | 1010.7 hPa | - | - | - | - |
| 1778012408 | 12.22° C | 53% | 1010.7 hPa | - | - | - | - |
| 1778011808 | 12.78° C | 52% | 1010.6 hPa | - | - | - | - |
| 1778011208 | 12.78° C | 52% | 1010.6 hPa | - | - | - | - |
| 1778010608 | 13.33° C | 51% | 1010.5 hPa | - | - | - | - |
| 1778010008 | 13.89° C | 49% | 1010.3 hPa | - | - | - | - |
| 1778009408 | 13.89° C | 48% | 1010.3 hPa | - | - | - | - |
| 1778008808 | 14.44° C | 46% | 1010.2 hPa | - | - | - | - |
| 1778008208 | 15° C | 45% | 1010.2 hPa | - | - | - | - |
| 1778007608 | 15.56° C | 43% | 1010.2 hPa | - | - | - | - |
| 1778007008 | 16.67° C | 41% | 1010 hPa | - | - | - | - |
| 1778006408 | 17.22° C | 39% | 1009.9 hPa | - | - | - | - |
| 1778005808 | 17.78° C | 38% | 1009.7 hPa | - | - | - | - |
| 1778005208 | 18.89° C | 35% | 1009.6 hPa | - | - | - | - |
| 1778004608 | 20° C | 33% | 1009.4 hPa | - | - | - | - |
* Rain since midnight (hover to see other rain measurements)
** Current wind speed in m/s (hover to see current wind gust speed)